createdAt,value
2018-03-25T00:00:05.761Z,0.42
2018-03-25T00:01:05.778Z,0.40
2018-03-25T00:02:05.786Z,0.42
2018-03-25T00:03:05.796Z,0.36
2018-03-25T00:04:05.817Z,0.42
2018-03-25T00:05:05.814Z,0.30
2018-03-25T00:06:05.821Z,0.34
2018-03-25T00:07:05.844Z,0.29
2018-03-25T00:08:05.852Z,0.31
2018-03-25T00:09:05.849Z,0.29
2018-03-25T00:10:05.858Z,0.29
2018-03-25T00:11:05.878Z,0.31
2018-03-25T00:12:05.888Z,0.27
2018-03-25T00:13:05.897Z,0.23
2018-03-25T00:14:05.905Z,0.29
2018-03-25T00:15:06.037Z,0.12
2018-03-25T00:16:05.924Z,0.26
2018-03-25T00:17:05.944Z,0.23
2018-03-25T00:18:05.941Z,0.11
2018-03-25T00:19:05.949Z,0.18
2018-03-25T00:20:05.960Z,0.16
2018-03-25T00:21:05.969Z,0.13
2018-03-25T00:22:05.988Z,0.05
2018-03-25T00:23:06.003Z,0.02
2018-03-25T00:24:06.006Z,0.02
2018-03-25T00:25:06.016Z,0.06
2018-03-25T00:26:06.037Z,0.08
2018-03-25T00:27:06.034Z,-0.02
2018-03-25T00:28:06.042Z,0.05
2018-03-25T00:29:06.051Z,0.00
2018-03-25T00:30:06.059Z,0.02
2018-03-25T00:31:06.069Z,-0.03
2018-03-25T00:32:06.077Z,-0.10
2018-03-25T00:33:06.098Z,-0.05
2018-03-25T00:34:06.108Z,-0.13
2018-03-25T00:35:06.129Z,-0.05
2018-03-25T00:36:06.126Z,-0.03
2018-03-25T00:37:06.133Z,-0.02
2018-03-25T00:38:06.143Z,-0.18
2018-03-25T00:39:06.152Z,-0.18
2018-03-25T00:40:06.161Z,-0.20
2018-03-25T00:41:06.169Z,-0.17
2018-03-25T00:42:06.178Z,-0.15
2018-03-25T00:43:06.188Z,-0.17
2018-03-25T00:44:06.197Z,-0.18
2018-03-25T00:45:06.205Z,-0.20
2018-03-25T00:46:06.215Z,-0.20
2018-03-25T00:47:06.224Z,-0.24
2018-03-25T00:48:06.244Z,-0.23
2018-03-25T00:49:06.254Z,-0.30
2018-03-25T00:50:06.262Z,-0.27
2018-03-25T00:51:06.272Z,-0.24
2018-03-25T00:52:06.280Z,-0.33
2018-03-25T00:53:06.289Z,-0.28
2018-03-25T00:54:06.298Z,-0.26
2018-03-25T00:55:06.308Z,-0.33
2018-03-25T00:56:06.315Z,-0.33
2018-03-25T00:57:06.330Z,-0.39
2018-03-25T00:58:06.344Z,-0.39
2018-03-25T00:59:06.343Z,-0.36
2018-03-25T01:00:06.350Z,-0.31
2018-03-25T01:01:06.372Z,-0.27
2018-03-25T01:02:06.370Z,-0.28
2018-03-25T01:03:06.379Z,-0.38
2018-03-25T01:04:06.400Z,-0.33
2018-03-25T01:05:06.408Z,-0.39
2018-03-25T01:06:06.417Z,-0.35
2018-03-25T01:07:06.464Z,-0.33
2018-03-25T01:08:06.439Z,-0.39
2018-03-25T01:09:06.443Z,-0.42
2018-03-25T01:10:06.453Z,-0.45
2018-03-25T01:11:06.461Z,-0.39
2018-03-25T01:12:06.471Z,-0.42
2018-03-25T01:13:06.480Z,-0.42
2018-03-25T01:14:06.491Z,-0.44
2018-03-25T01:15:06.496Z,-0.45
2018-03-25T01:16:06.507Z,-0.49
2018-03-25T01:17:06.515Z,-0.57
2018-03-25T01:18:06.523Z,-0.42
2018-03-25T01:19:06.532Z,-0.56
2018-03-25T01:20:06.553Z,-0.59
2018-03-25T01:21:06.551Z,-0.48
2018-03-25T01:22:06.560Z,-0.51
2018-03-25T01:23:06.569Z,-0.49
2018-03-25T01:24:06.581Z,-0.49
2018-03-25T01:25:06.598Z,-0.46
2018-03-25T01:26:06.607Z,-0.54
2018-03-25T01:27:06.616Z,-0.54
2018-03-25T01:28:06.625Z,-0.54
2018-03-25T01:29:06.635Z,-0.53
2018-03-25T01:30:06.643Z,-0.56
2018-03-25T01:31:06.652Z,-0.56
2018-03-25T01:32:06.660Z,-0.56
2018-03-25T01:33:06.673Z,-0.59
2018-03-25T01:34:06.677Z,-0.54
2018-03-25T01:35:06.689Z,-0.60
2018-03-25T01:36:06.696Z,-0.62
2018-03-25T01:37:06.706Z,-0.53
2018-03-25T01:38:06.716Z,-0.57
2018-03-25T01:39:06.723Z,-0.59
2018-03-25T01:40:06.732Z,-0.62
2018-03-25T01:41:06.741Z,-0.66
2018-03-25T01:42:06.749Z,-0.57
2018-03-25T01:43:06.764Z,-0.62
2018-03-25T01:44:06.767Z,-0.66
2018-03-25T01:45:06.777Z,-0.66
2018-03-25T01:46:06.785Z,-0.64
2018-03-25T01:47:06.795Z,-0.62
2018-03-25T01:48:06.802Z,-0.67
2018-03-25T01:49:06.812Z,-0.69
2018-03-25T01:50:06.834Z,-0.66
2018-03-25T01:51:06.835Z,-0.67
2018-03-25T01:52:07.125Z,-0.66
2018-03-25T01:53:06.848Z,-0.72
2018-03-25T01:54:06.869Z,-0.75
2018-03-25T01:55:06.866Z,-0.72
2018-03-25T01:56:06.890Z,-0.74
2018-03-25T01:57:06.895Z,-0.74
2018-03-25T01:58:06.904Z,-0.77
2018-03-25T01:59:06.926Z,-0.77
2018-03-25T02:00:06.923Z,-0.74
2018-03-25T02:01:06.931Z,-0.69
2018-03-25T02:02:06.940Z,-0.70
2018-03-25T02:03:06.951Z,-0.69
2018-03-25T02:04:06.958Z,-0.78
2018-03-25T02:05:06.966Z,-0.78
2018-03-25T02:06:06.976Z,-0.78
2018-03-25T02:07:06.984Z,-0.77
2018-03-25T02:08:06.994Z,-0.72
2018-03-25T02:09:07.002Z,-0.72
2018-03-25T02:10:07.017Z,-0.84
2018-03-25T02:11:07.020Z,-0.81
2018-03-25T02:12:07.029Z,-0.80
2018-03-25T02:13:07.050Z,-0.84
2018-03-25T02:14:07.048Z,-0.84
2018-03-25T02:15:07.055Z,-0.84
2018-03-25T02:16:07.064Z,-0.82
2018-03-25T02:17:07.072Z,-0.87
2018-03-25T02:18:07.083Z,-0.85
2018-03-25T02:19:07.093Z,-0.87
2018-03-25T02:20:07.101Z,-0.82
2018-03-25T02:21:07.110Z,-0.80
2018-03-25T02:22:07.118Z,-0.80
2018-03-25T02:23:07.127Z,-0.91
2018-03-25T02:24:07.136Z,-0.94
2018-03-25T02:25:07.144Z,-0.85
2018-03-25T02:26:07.154Z,-0.89
2018-03-25T02:27:07.162Z,-0.91
2018-03-25T02:28:07.177Z,-0.91
2018-03-25T02:29:07.181Z,-0.91
2018-03-25T02:30:07.203Z,-0.89
2018-03-25T02:31:07.199Z,-0.89
2018-03-25T02:32:07.208Z,-0.82
2018-03-25T02:33:07.216Z,-0.91
2018-03-25T02:34:07.244Z,-0.89
2018-03-25T02:35:07.234Z,-0.94
2018-03-25T02:36:07.254Z,-0.85
2018-03-25T02:37:07.269Z,-0.84
2018-03-25T02:38:07.272Z,-0.94
2018-03-25T02:39:07.298Z,-0.89
2018-03-25T02:40:07.293Z,-0.96
2018-03-25T02:41:07.298Z,-0.89
2018-03-25T02:42:07.309Z,-0.91
2018-03-25T02:43:07.318Z,-0.93
2018-03-25T02:44:07.325Z,-0.89
2018-03-25T02:45:07.335Z,-0.89
2018-03-25T02:46:07.344Z,-0.89
2018-03-25T02:47:07.352Z,-0.82
2018-03-25T02:48:07.361Z,-0.89
2018-03-25T02:49:07.370Z,-0.89
2018-03-25T02:50:07.380Z,-0.93
2018-03-25T02:51:07.388Z,-0.84
2018-03-25T02:52:07.414Z,-0.87
2018-03-25T02:53:07.409Z,-0.94
2018-03-25T02:54:07.456Z,-0.94
2018-03-25T02:55:07.424Z,-0.87
2018-03-25T02:56:07.433Z,-0.87
2018-03-25T02:57:07.445Z,-0.91
2018-03-25T02:58:07.452Z,-0.99
2018-03-25T02:59:07.460Z,-1.00
2018-03-25T03:00:07.469Z,-0.87
2018-03-25T03:01:07.477Z,-0.99
2018-03-25T03:02:07.494Z,-0.96
2018-03-25T03:03:07.496Z,-0.97
2018-03-25T03:04:07.503Z,-1.00
2018-03-25T03:05:07.514Z,-0.93
2018-03-25T03:06:07.521Z,-1.00
2018-03-25T03:07:07.534Z,-1.04
2018-03-25T03:08:07.538Z,-1.03
2018-03-25T03:09:07.548Z,-1.03
2018-03-25T03:10:07.557Z,-0.97
2018-03-25T03:11:07.575Z,-1.03
2018-03-25T03:12:07.579Z,-1.11
2018-03-25T03:13:07.584Z,-1.07
2018-03-25T03:14:07.595Z,-1.00
2018-03-25T03:15:07.602Z,-1.03
2018-03-25T03:16:07.610Z,-1.11
2018-03-25T03:17:07.620Z,-1.11
2018-03-25T03:18:07.628Z,-1.09
2018-03-25T03:19:07.638Z,-0.96
2018-03-25T03:20:07.663Z,-1.14
2018-03-25T03:21:07.655Z,-1.12
2018-03-25T03:22:07.663Z,-1.14
2018-03-25T03:23:07.674Z,-1.06
2018-03-25T03:24:07.696Z,-1.11
2018-03-25T03:25:07.691Z,-1.11
2018-03-25T03:26:07.738Z,-1.00
2018-03-25T03:27:07.708Z,-1.12
2018-03-25T03:28:07.716Z,-1.09
2018-03-25T03:29:07.728Z,-1.11
2018-03-25T03:30:07.736Z,-1.11
2018-03-25T03:31:07.743Z,-1.12
2018-03-25T03:32:07.752Z,-1.11
2018-03-25T03:33:07.766Z,-1.09
2018-03-25T03:34:07.782Z,-1.21
2018-03-25T03:35:07.780Z,-1.11
2018-03-25T03:36:07.788Z,-1.15
2018-03-25T03:37:07.798Z,-1.21
2018-03-25T03:38:07.805Z,-1.18
2018-03-25T03:39:07.816Z,-1.07
2018-03-25T03:40:07.823Z,-1.24
2018-03-25T03:41:07.832Z,-1.11
2018-03-25T03:42:07.841Z,-1.21
2018-03-25T03:43:07.850Z,-1.19
2018-03-25T03:44:07.859Z,-1.24
2018-03-25T03:45:07.870Z,-1.21
2018-03-25T03:46:07.877Z,-1.21
2018-03-25T03:47:07.886Z,-1.18
2018-03-25T03:48:07.894Z,-1.17
2018-03-25T03:49:07.905Z,-1.22
2018-03-25T03:50:07.915Z,-1.25
2018-03-25T03:51:07.933Z,-1.22
2018-03-25T03:52:07.930Z,-1.18
2018-03-25T03:53:07.940Z,-1.24
2018-03-25T03:54:07.948Z,-1.18
2018-03-25T03:55:07.957Z,-1.21
2018-03-25T03:56:07.966Z,-1.21
2018-03-25T03:57:07.975Z,-1.21
2018-03-25T03:58:07.983Z,-1.19
2018-03-25T03:59:07.993Z,-1.29
2018-03-25T04:00:08.001Z,-1.21
2018-03-25T04:01:08.011Z,-1.24
2018-03-25T04:02:08.020Z,-1.19
2018-03-25T04:03:08.029Z,-1.17
2018-03-25T04:04:08.036Z,-1.19
2018-03-25T04:05:08.055Z,-1.14
2018-03-25T04:06:08.055Z,-1.25
2018-03-25T04:07:08.064Z,-1.19
2018-03-25T04:08:08.072Z,-1.22
2018-03-25T04:09:08.121Z,-1.27
2018-03-25T04:10:08.090Z,-1.14
2018-03-25T04:11:08.099Z,-1.12
2018-03-25T04:12:08.109Z,-1.22
2018-03-25T04:13:08.117Z,-1.18
2018-03-25T04:14:08.131Z,-1.22
2018-03-25T04:15:08.135Z,-1.17
2018-03-25T04:16:08.143Z,-1.19
2018-03-25T04:17:08.152Z,-1.22
2018-03-25T04:18:08.161Z,-1.17
2018-03-25T04:19:08.170Z,-1.22
2018-03-25T04:20:08.178Z,-1.15
2018-03-25T04:21:08.187Z,-1.21
2018-03-25T04:22:08.209Z,-1.15
2018-03-25T04:23:08.206Z,-1.19
2018-03-25T04:24:08.218Z,-1.19
2018-03-25T04:25:08.223Z,-1.21
2018-03-25T04:26:08.233Z,-1.18
2018-03-25T04:27:08.242Z,-1.09
2018-03-25T04:28:08.250Z,-1.12
2018-03-25T04:29:08.260Z,-1.24
2018-03-25T04:30:08.271Z,-1.18
2018-03-25T04:31:08.277Z,-1.19
2018-03-25T04:32:08.298Z,-1.21
2018-03-25T04:33:08.298Z,-1.14
2018-03-25T04:34:08.306Z,-1.18
2018-03-25T04:35:08.312Z,-1.17
2018-03-25T04:36:08.334Z,-1.21
2018-03-25T04:37:08.331Z,-1.24
2018-03-25T04:38:08.339Z,-1.22
2018-03-25T04:39:08.349Z,-1.18
2018-03-25T04:40:08.378Z,-1.21
2018-03-25T04:41:08.366Z,-1.21
2018-03-25T04:42:08.375Z,-1.30
2018-03-25T04:43:08.383Z,-1.14
2018-03-25T04:44:08.391Z,-1.25
2018-03-25T04:45:08.401Z,-1.21
2018-03-25T04:46:08.410Z,-1.21
2018-03-25T04:47:08.419Z,-1.22
2018-03-25T04:48:08.428Z,-1.22
2018-03-25T04:49:08.437Z,-1.21
2018-03-25T04:50:08.447Z,-1.19
2018-03-25T04:51:08.457Z,-1.11
2018-03-25T04:52:08.462Z,-1.25
2018-03-25T04:53:08.473Z,-1.18
2018-03-25T04:54:08.481Z,-1.30
2018-03-25T04:55:08.490Z,-1.11
2018-03-25T04:56:08.510Z,-1.11
2018-03-25T04:57:08.509Z,-1.22
2018-03-25T04:58:08.516Z,-1.11
2018-03-25T04:59:08.525Z,-1.21
2018-03-25T05:00:08.534Z,-1.12
2018-03-25T05:01:08.545Z,-1.14
2018-03-25T05:02:08.552Z,-1.12
2018-03-25T05:03:08.561Z,-1.15
2018-03-25T05:04:08.570Z,-1.07
2018-03-25T05:05:08.580Z,-1.11
2018-03-25T05:06:08.587Z,-1.09
2018-03-25T05:07:08.599Z,-1.14
2018-03-25T05:08:08.605Z,-1.04
2018-03-25T05:09:08.614Z,-1.18
2018-03-25T05:10:08.624Z,-1.09
2018-03-25T05:11:08.632Z,-1.14
2018-03-25T05:12:08.640Z,-1.06
2018-03-25T05:13:08.651Z,-1.06
2018-03-25T05:14:08.659Z,-1.11
2018-03-25T05:15:08.668Z,-1.07
2018-03-25T05:16:08.676Z,-1.14
2018-03-25T05:17:08.686Z,-1.11
2018-03-25T05:18:08.694Z,-1.07
2018-03-25T05:19:08.704Z,-1.07
2018-03-25T05:20:08.714Z,-1.06
2018-03-25T05:21:08.721Z,-1.09
2018-03-25T05:22:08.730Z,-1.06
2018-03-25T05:23:08.740Z,-1.04
2018-03-25T05:24:08.747Z,-1.06
2018-03-25T05:25:08.757Z,-0.99
2018-03-25T05:26:08.765Z,-1.01
2018-03-25T05:27:08.775Z,-1.01
2018-03-25T05:28:08.783Z,-1.03
2018-03-25T05:29:08.793Z,-1.03
2018-03-25T05:30:08.801Z,-0.97
2018-03-25T05:31:08.810Z,-1.00
2018-03-25T05:32:08.818Z,-0.99
2018-03-25T05:33:08.828Z,-0.96
2018-03-25T05:34:08.895Z,-0.96
2018-03-25T05:35:08.845Z,-0.91
2018-03-25T05:36:08.855Z,-0.91
2018-03-25T05:37:08.865Z,-0.93
2018-03-25T05:38:08.873Z,-0.85
2018-03-25T05:39:08.884Z,-0.82
2018-03-25T05:40:08.891Z,-0.87
2018-03-25T05:41:08.911Z,-0.80
2018-03-25T05:42:08.923Z,-0.89
2018-03-25T05:43:08.942Z,-0.89
2018-03-25T05:44:08.939Z,-0.89
2018-03-25T05:45:08.959Z,-0.81
2018-03-25T05:46:08.956Z,-0.82
2018-03-25T05:47:08.977Z,-0.77
2018-03-25T05:48:08.974Z,-0.72
2018-03-25T05:49:08.982Z,-0.62
2018-03-25T05:50:09.024Z,-0.69
2018-03-25T05:51:09.000Z,-0.62
2018-03-25T05:52:09.009Z,-0.60
2018-03-25T05:53:09.018Z,-0.59
2018-03-25T05:54:09.027Z,-0.59
2018-03-25T05:55:09.035Z,-0.56
2018-03-25T05:56:09.045Z,-0.59
2018-03-25T05:57:09.055Z,-0.51
2018-03-25T05:58:09.069Z,-0.53
2018-03-25T05:59:09.070Z,-0.45
2018-03-25T06:00:09.081Z,-0.45
2018-03-25T06:01:09.102Z,-0.36
2018-03-25T06:02:09.110Z,-0.33
2018-03-25T06:03:09.122Z,-0.38
2018-03-25T06:04:09.128Z,-0.36
2018-03-25T06:05:09.137Z,-0.30
2018-03-25T06:06:09.146Z,-0.28
2018-03-25T06:07:09.202Z,-0.31
2018-03-25T06:08:09.165Z,-0.30
2018-03-25T06:09:09.173Z,-0.26
2018-03-25T06:10:09.180Z,-0.20
2018-03-25T06:11:09.197Z,-0.07
2018-03-25T06:12:09.200Z,-0.07
2018-03-25T06:13:09.220Z,-0.09
2018-03-25T06:14:09.229Z,-0.12
2018-03-25T06:15:09.239Z,-0.06
2018-03-25T06:16:09.248Z,0.11
2018-03-25T06:17:09.256Z,0.00
2018-03-25T06:18:09.265Z,0.06
2018-03-25T06:19:09.273Z,0.11
2018-03-25T06:20:09.283Z,0.18
2018-03-25T06:21:09.298Z,0.23
2018-03-25T06:22:09.312Z,0.23
2018-03-25T06:23:09.323Z,0.23
2018-03-25T06:24:09.331Z,0.30
2018-03-25T06:25:09.342Z,0.23
2018-03-25T06:26:09.348Z,0.27
2018-03-25T06:27:09.358Z,0.29
2018-03-25T06:28:09.365Z,0.34
2018-03-25T06:29:09.388Z,0.36
2018-03-25T06:30:09.397Z,0.44
2018-03-25T06:31:09.405Z,0.48
2018-03-25T06:32:09.414Z,0.48
2018-03-25T06:33:09.424Z,0.58
2018-03-25T06:34:09.433Z,0.56
2018-03-25T06:35:09.440Z,0.63
2018-03-25T06:36:09.462Z,0.67
2018-03-25T06:37:09.472Z,0.66
2018-03-25T06:38:09.480Z,0.71
2018-03-25T06:39:09.490Z,0.77
2018-03-25T06:40:09.498Z,0.88
2018-03-25T06:41:09.507Z,0.91
2018-03-25T06:42:09.531Z,1.02
2018-03-25T06:43:09.536Z,1.04
2018-03-25T06:44:09.547Z,1.06
2018-03-25T06:45:09.554Z,1.03
2018-03-25T06:46:09.564Z,1.12
2018-03-25T06:47:09.580Z,1.18
2018-03-25T06:48:09.599Z,1.06
2018-03-25T06:49:09.603Z,1.14
2018-03-25T06:50:09.625Z,1.21
2018-03-25T06:51:09.621Z,1.32
2018-03-25T06:52:09.630Z,1.31
2018-03-25T06:53:09.651Z,1.31
2018-03-25T06:54:09.669Z,1.31
2018-03-25T06:55:09.669Z,1.43
2018-03-25T06:56:09.677Z,1.39
2018-03-25T06:57:09.699Z,1.45
2018-03-25T06:58:09.709Z,1.56
2018-03-25T06:59:09.720Z,1.50
2018-03-25T07:00:09.725Z,1.49
2018-03-25T07:01:09.736Z,1.64
2018-03-25T07:02:09.756Z,1.57
2018-03-25T07:03:09.778Z,1.64
2018-03-25T07:04:09.776Z,1.68
2018-03-25T07:05:09.783Z,1.78
2018-03-25T07:06:09.803Z,1.78
2018-03-25T07:07:09.814Z,1.82
2018-03-25T07:08:09.844Z,1.86
2018-03-25T07:09:09.831Z,1.95
2018-03-25T07:10:09.852Z,2.00
2018-03-25T07:11:09.860Z,2.00
2018-03-25T07:12:09.870Z,2.00
2018-03-25T07:13:09.891Z,2.01
2018-03-25T07:14:09.900Z,2.10
2018-03-25T07:15:09.909Z,2.12
2018-03-25T07:16:09.918Z,2.16
2018-03-25T07:17:09.940Z,2.28
2018-03-25T07:18:09.949Z,2.28
2018-03-25T07:19:09.957Z,2.30
2018-03-25T07:20:09.966Z,2.32
2018-03-25T07:21:09.991Z,2.41
2018-03-25T07:22:09.995Z,2.47
2018-03-25T07:23:10.005Z,2.65
2018-03-25T07:24:10.026Z,2.76
2018-03-25T07:25:10.037Z,2.97
2018-03-25T07:26:10.044Z,3.00
2018-03-25T07:27:10.067Z,3.03
2018-03-25T07:28:10.075Z,3.12
2018-03-25T07:29:10.084Z,3.34
2018-03-25T07:30:10.129Z,3.36
2018-03-25T07:31:10.113Z,3.46
2018-03-25T07:32:10.124Z,3.55
2018-03-25T07:33:10.144Z,3.67
2018-03-25T07:34:10.153Z,3.70
2018-03-25T07:35:10.161Z,3.74
2018-03-25T07:36:10.192Z,3.86
2018-03-25T07:37:10.191Z,3.94
2018-03-25T07:38:10.201Z,3.95
2018-03-25T07:39:10.223Z,4.04
2018-03-25T07:40:10.231Z,3.99
2018-03-25T07:41:10.261Z,4.14
2018-03-25T07:42:10.262Z,4.25
2018-03-25T07:43:10.272Z,4.25
2018-03-25T07:44:10.291Z,4.25
2018-03-25T07:45:10.301Z,4.40
2018-03-25T07:46:10.322Z,4.34
2018-03-25T07:47:10.331Z,4.30
2018-03-25T07:48:10.340Z,4.31
2018-03-25T07:49:10.361Z,4.43
2018-03-25T07:50:10.416Z,4.43
2018-03-25T07:51:10.391Z,4.39
2018-03-25T07:52:10.401Z,4.42
2018-03-25T07:53:10.421Z,4.40
2018-03-25T07:54:10.430Z,4.36
2018-03-25T07:55:10.440Z,4.34
2018-03-25T07:56:10.461Z,4.34
2018-03-25T07:57:10.469Z,4.40
2018-03-25T07:58:10.490Z,4.45
2018-03-25T07:59:10.500Z,4.38
2018-03-25T08:00:10.521Z,4.40
2018-03-25T08:01:10.530Z,4.39
2018-03-25T08:02:10.564Z,4.48
2018-03-25T08:03:10.561Z,4.43
2018-03-25T08:04:10.571Z,4.49
2018-03-25T08:05:10.590Z,4.46
2018-03-25T08:06:10.600Z,4.53
2018-03-25T08:07:10.622Z,4.48
2018-03-25T08:08:10.629Z,4.50
2018-03-25T08:09:10.659Z,4.63
2018-03-25T08:10:10.660Z,4.58
2018-03-25T08:11:10.681Z,4.58
2018-03-25T08:12:10.704Z,4.70
2018-03-25T08:13:10.700Z,4.76
2018-03-25T08:14:10.721Z,4.76
2018-03-25T08:15:10.732Z,4.71
2018-03-25T08:16:10.799Z,4.86
2018-03-25T08:17:10.759Z,4.83
2018-03-25T08:18:10.781Z,4.84
2018-03-25T08:19:10.789Z,4.89
2018-03-25T08:20:10.810Z,4.94
2018-03-25T08:21:10.821Z,5.01
2018-03-25T08:22:10.842Z,5.01
2018-03-25T08:23:10.850Z,4.92
2018-03-25T08:24:10.871Z,5.04
2018-03-25T08:25:10.883Z,5.08
2018-03-25T08:26:10.894Z,5.18
2018-03-25T08:27:10.911Z,5.19
2018-03-25T08:28:10.920Z,5.20
2018-03-25T08:29:10.942Z,5.20
2018-03-25T08:30:10.950Z,5.31
2018-03-25T08:31:10.971Z,5.40
2018-03-25T08:32:10.980Z,5.40
2018-03-25T08:33:11.003Z,5.49
2018-03-25T08:34:11.010Z,5.49
2018-03-25T08:35:11.032Z,5.43
2018-03-25T08:36:11.040Z,5.62
2018-03-25T08:37:11.063Z,5.44
2018-03-25T08:38:11.071Z,5.61
2018-03-25T08:39:11.093Z,5.62
2018-03-25T08:40:11.106Z,5.64
2018-03-25T08:41:11.124Z,5.61
2018-03-25T08:42:11.132Z,5.62
2018-03-25T08:43:11.153Z,5.74
2018-03-25T08:44:11.163Z,5.74
2018-03-25T08:45:11.184Z,5.80
2018-03-25T08:46:11.197Z,5.76
2018-03-25T08:47:11.213Z,5.87
2018-03-25T08:48:11.229Z,5.92
2018-03-25T08:49:11.245Z,5.92
2018-03-25T08:50:11.254Z,6.06
2018-03-25T08:51:11.287Z,6.02
2018-03-25T08:52:11.298Z,6.07
2018-03-25T08:53:11.307Z,6.10
2018-03-25T08:54:11.326Z,6.19
2018-03-25T08:55:11.334Z,6.16
2018-03-25T08:56:11.355Z,6.13
2018-03-25T08:57:11.365Z,6.22
2018-03-25T08:58:11.387Z,6.28
2018-03-25T08:59:11.395Z,6.36
2018-03-25T09:00:11.416Z,6.47
2018-03-25T09:01:11.427Z,6.46
2018-03-25T09:02:11.447Z,6.41
2018-03-25T09:03:11.468Z,6.46
2018-03-25T09:04:11.480Z,6.47
2018-03-25T09:05:11.498Z,6.54
2018-03-25T09:06:11.509Z,6.62
2018-03-25T09:07:11.529Z,6.64
2018-03-25T09:08:11.538Z,6.60
2018-03-25T09:09:11.571Z,6.74
2018-03-25T09:10:11.581Z,6.68
2018-03-25T09:11:11.590Z,6.67
2018-03-25T09:12:11.611Z,6.82
2018-03-25T09:13:11.620Z,6.85
2018-03-25T09:14:11.643Z,6.80
2018-03-25T09:15:11.662Z,6.89
2018-03-25T09:16:11.671Z,6.83
2018-03-25T09:17:11.695Z,6.92
2018-03-25T09:18:11.701Z,6.90
2018-03-25T09:19:11.728Z,6.95
2018-03-25T09:20:11.733Z,7.03
2018-03-25T09:21:11.754Z,7.04
2018-03-25T09:22:11.775Z,7.11
2018-03-25T09:23:11.785Z,7.10
2018-03-25T09:24:11.805Z,7.11
2018-03-25T09:25:11.815Z,7.10
2018-03-25T09:26:11.835Z,7.04
2018-03-25T09:27:11.856Z,7.08
2018-03-25T09:28:11.865Z,7.19
2018-03-25T09:29:11.887Z,7.18
2018-03-25T09:30:11.897Z,7.15
2018-03-25T09:31:11.920Z,7.28
2018-03-25T09:32:11.939Z,7.28
2018-03-25T09:33:11.947Z,7.26
2018-03-25T09:34:11.968Z,7.37
2018-03-25T09:35:11.981Z,7.41
2018-03-25T09:36:12.000Z,7.40
2018-03-25T09:37:12.022Z,7.47
2018-03-25T09:38:12.029Z,7.48
2018-03-25T09:39:12.051Z,7.51
2018-03-25T09:40:12.084Z,7.62
2018-03-25T09:41:12.082Z,7.72
2018-03-25T09:42:12.103Z,7.66
2018-03-25T09:43:12.124Z,7.69
2018-03-25T09:44:12.134Z,7.61
2018-03-25T09:45:12.154Z,7.69
2018-03-25T09:46:12.175Z,7.77
2018-03-25T09:47:12.186Z,7.78
2018-03-25T09:48:12.207Z,7.84
2018-03-25T09:49:12.215Z,7.85
2018-03-25T09:50:12.236Z,7.85
2018-03-25T09:51:12.260Z,7.88
2018-03-25T09:52:12.267Z,7.93
2018-03-25T09:53:12.288Z,8.01
2018-03-25T09:54:12.309Z,7.98
2018-03-25T09:55:12.317Z,8.08
2018-03-25T09:56:12.339Z,8.11
2018-03-25T09:57:12.362Z,8.09
2018-03-25T09:58:12.369Z,8.23
2018-03-25T09:59:12.393Z,8.24
2018-03-25T10:00:12.415Z,8.24
2018-03-25T10:01:12.423Z,8.23
2018-03-25T10:02:12.442Z,8.36
2018-03-25T10:03:12.463Z,8.38
2018-03-25T10:04:12.474Z,8.38
2018-03-25T10:05:12.494Z,8.36
2018-03-25T10:06:12.516Z,8.41
2018-03-25T10:07:12.536Z,8.44
2018-03-25T10:08:12.546Z,8.59
2018-03-25T10:09:12.567Z,8.52
2018-03-25T10:10:12.592Z,8.52
2018-03-25T10:11:12.597Z,8.46
2018-03-25T10:12:12.620Z,8.60
2018-03-25T10:13:12.641Z,8.57
2018-03-25T10:14:12.653Z,8.69
2018-03-25T10:15:12.670Z,8.64
2018-03-25T10:16:12.955Z,8.64
2018-03-25T10:17:12.715Z,8.68
2018-03-25T10:18:12.722Z,8.75
2018-03-25T10:19:12.746Z,8.75
2018-03-25T10:20:12.766Z,8.77
2018-03-25T10:21:12.774Z,8.82
2018-03-25T10:22:12.795Z,8.78
2018-03-25T10:23:12.816Z,8.75
2018-03-25T10:24:12.850Z,8.90
2018-03-25T10:25:12.846Z,8.90
2018-03-25T10:26:12.869Z,8.93
2018-03-25T10:27:12.890Z,8.96
2018-03-25T10:28:12.899Z,8.97
2018-03-25T10:29:12.919Z,9.09
2018-03-25T10:30:12.941Z,9.05
2018-03-25T10:31:12.963Z,9.13
2018-03-25T10:32:12.971Z,9.12
2018-03-25T10:33:12.993Z,9.16
2018-03-25T10:34:13.014Z,9.18
2018-03-25T10:35:13.030Z,9.03
2018-03-25T10:36:13.096Z,9.22
2018-03-25T10:37:13.067Z,9.18
2018-03-25T10:38:13.100Z,9.16
2018-03-25T10:39:13.096Z,9.27
2018-03-25T10:40:13.118Z,9.30
2018-03-25T10:41:13.140Z,9.34
2018-03-25T10:42:13.161Z,9.34
2018-03-25T10:43:13.168Z,9.34
2018-03-25T10:44:13.191Z,9.34
2018-03-25T10:45:13.211Z,9.31
2018-03-25T10:46:13.233Z,9.30
2018-03-25T10:47:13.243Z,9.44
2018-03-25T10:48:13.265Z,9.44
2018-03-25T10:49:13.287Z,9.42
2018-03-25T10:50:13.306Z,9.48
2018-03-25T10:51:13.317Z,9.45
2018-03-25T10:52:13.336Z,9.49
2018-03-25T10:53:13.361Z,9.56
2018-03-25T10:54:13.384Z,9.67
2018-03-25T10:55:13.388Z,9.64
2018-03-25T10:56:13.413Z,9.69
2018-03-25T10:57:13.431Z,9.70
2018-03-25T10:58:13.441Z,9.74
2018-03-25T10:59:13.461Z,9.73
2018-03-25T11:00:13.482Z,9.72
2018-03-25T11:01:13.517Z,9.70
2018-03-25T11:02:13.526Z,9.77
2018-03-25T11:03:13.539Z,9.80
2018-03-25T11:04:13.556Z,9.91
2018-03-25T11:05:13.577Z,9.87
2018-03-25T11:06:13.603Z,9.91
2018-03-25T11:07:13.607Z,9.92
2018-03-25T11:08:13.629Z,9.94
2018-03-25T11:09:13.650Z,10.00
2018-03-25T11:10:13.671Z,9.94
2018-03-25T11:11:13.680Z,9.99
2018-03-25T11:12:13.732Z,10.00
2018-03-25T11:13:13.723Z,9.92
2018-03-25T11:14:13.745Z,10.07
2018-03-25T11:15:13.754Z,10.06
2018-03-25T11:16:13.775Z,10.17
2018-03-25T11:17:13.796Z,10.09
2018-03-25T11:18:13.817Z,10.06
2018-03-25T11:19:13.827Z,10.10
2018-03-25T11:20:13.849Z,10.10
2018-03-25T11:21:13.870Z,10.17
2018-03-25T11:22:13.893Z,10.13
2018-03-25T11:23:13.913Z,10.12
2018-03-25T11:24:13.920Z,10.24
2018-03-25T11:25:13.942Z,10.18
2018-03-25T11:26:13.963Z,10.17
2018-03-25T11:27:13.999Z,10.10
2018-03-25T11:28:14.006Z,10.20
2018-03-25T11:29:14.017Z,10.24
2018-03-25T11:30:14.037Z,10.27
2018-03-25T11:31:14.061Z,10.24
2018-03-25T11:32:14.083Z,10.30
2018-03-25T11:33:14.089Z,10.24
2018-03-25T11:34:14.109Z,10.30
2018-03-25T11:35:14.134Z,10.27
2018-03-25T11:36:14.152Z,10.30
2018-03-25T11:37:14.174Z,10.28
2018-03-25T11:38:14.184Z,10.34
2018-03-25T11:39:14.204Z,10.36
2018-03-25T11:40:14.228Z,10.27
2018-03-25T11:41:14.247Z,10.27
2018-03-25T11:42:14.273Z,10.25
2018-03-25T11:43:14.279Z,10.31
2018-03-25T11:44:14.299Z,10.34
2018-03-25T11:45:14.319Z,10.27
2018-03-25T11:46:14.341Z,10.34
2018-03-25T11:47:14.351Z,10.31
2018-03-25T11:48:14.373Z,10.46
2018-03-25T11:49:14.394Z,10.38
2018-03-25T11:50:14.415Z,10.38
2018-03-25T11:51:14.436Z,10.41
2018-03-25T11:52:14.444Z,10.48
2018-03-25T11:53:14.481Z,10.57
2018-03-25T11:54:14.487Z,10.57
2018-03-25T11:55:14.509Z,10.45
2018-03-25T11:56:14.530Z,10.51
2018-03-25T11:57:14.541Z,10.59
2018-03-25T11:58:14.562Z,10.59
2018-03-25T11:59:14.583Z,10.57
2018-03-25T12:00:14.603Z,10.68
2018-03-25T12:01:14.626Z,10.68
2018-03-25T12:02:14.633Z,10.71
2018-03-25T12:03:14.670Z,10.62
2018-03-25T12:04:14.677Z,10.65
2018-03-25T12:05:14.697Z,10.80
2018-03-25T12:06:14.720Z,10.76
2018-03-25T12:07:14.729Z,10.80
2018-03-25T12:08:14.754Z,10.76
2018-03-25T12:09:14.771Z,10.76
2018-03-25T12:10:14.793Z,10.80
2018-03-25T12:11:14.806Z,10.71
2018-03-25T12:12:14.822Z,10.84
2018-03-25T12:13:14.845Z,10.89
2018-03-25T12:14:14.865Z,10.76
2018-03-25T12:15:14.887Z,10.86
2018-03-25T12:16:14.911Z,10.89
2018-03-25T12:17:14.918Z,10.94
2018-03-25T12:18:14.939Z,10.94
2018-03-25T12:19:14.960Z,10.98
2018-03-25T12:20:14.982Z,11.02
2018-03-25T12:21:15.003Z,11.02
2018-03-25T12:22:15.024Z,10.97
2018-03-25T12:23:15.033Z,11.00
2018-03-25T12:24:15.054Z,11.05
2018-03-25T12:25:15.076Z,11.02
2018-03-25T12:26:15.109Z,11.07
2018-03-25T12:27:15.118Z,11.15
2018-03-25T12:28:15.128Z,11.10
2018-03-25T12:29:15.150Z,11.12
2018-03-25T12:30:15.171Z,11.13
2018-03-25T12:31:15.191Z,11.16
2018-03-25T12:32:15.218Z,11.15
2018-03-25T12:33:15.289Z,11.19
2018-03-25T12:34:15.256Z,11.22
2018-03-25T12:35:15.264Z,11.18
2018-03-25T12:36:15.285Z,11.22
2018-03-25T12:37:15.307Z,11.31
2018-03-25T12:38:15.329Z,11.22
2018-03-25T12:39:15.350Z,11.22
2018-03-25T12:40:15.371Z,11.25
2018-03-25T12:41:15.381Z,11.23
2018-03-25T12:42:15.402Z,11.25
2018-03-25T12:43:15.425Z,11.27
2018-03-25T12:44:15.445Z,11.34
2018-03-25T12:45:15.466Z,11.35
2018-03-25T12:46:15.488Z,11.35
2018-03-25T12:47:15.496Z,11.33
2018-03-25T12:48:15.530Z,11.43
2018-03-25T12:49:15.552Z,11.38
2018-03-25T12:50:15.560Z,11.38
2018-03-25T12:51:15.582Z,11.41
2018-03-25T12:52:15.603Z,11.51
2018-03-25T12:53:15.623Z,11.51
2018-03-25T12:54:15.634Z,11.41
2018-03-25T12:55:15.655Z,11.41
2018-03-25T12:56:15.678Z,11.55
2018-03-25T12:57:15.698Z,11.53
2018-03-25T12:58:15.719Z,11.59
2018-03-25T12:59:15.740Z,11.60
2018-03-25T13:00:15.762Z,11.65
2018-03-25T13:01:15.784Z,11.68
2018-03-25T13:02:15.796Z,11.67
2018-03-25T13:03:15.813Z,11.73